createdAt,value
2017-07-19T00:01:34.430Z,3.80
2017-07-19T00:04:03.622Z,3.97
2017-07-19T00:06:32.815Z,4.37
2017-07-19T00:09:02.711Z,3.63
2017-07-19T00:11:31.574Z,3.93
2017-07-19T00:14:00.758Z,3.77
2017-07-19T00:16:29.642Z,3.83
2017-07-19T00:18:59.599Z,4.10
2017-07-19T00:21:28.784Z,3.50
2017-07-19T00:23:57.691Z,4.00
2017-07-19T00:26:26.140Z,3.67
2017-07-19T00:28:54.971Z,4.10
2017-07-19T00:31:23.791Z,3.77
2017-07-19T00:33:52.221Z,3.93
2017-07-19T00:36:21.032Z,3.50
2017-07-19T00:38:49.844Z,4.37
2017-07-19T00:41:18.321Z,3.70
2017-07-19T00:43:47.207Z,3.50
2017-07-19T00:46:16.034Z,3.67
2017-07-19T00:48:44.447Z,3.80
2017-07-19T00:51:13.299Z,3.70
2017-07-19T00:53:42.402Z,3.93
2017-07-19T00:56:11.270Z,4.17
2017-07-19T00:58:40.082Z,4.03
2017-07-19T01:01:08.556Z,4.23
2017-07-19T01:03:37.370Z,4.03
2017-07-19T01:06:06.570Z,3.83
2017-07-19T01:08:35.507Z,3.83
2017-07-19T01:11:04.335Z,3.77
2017-07-19T01:13:33.521Z,3.20
2017-07-19T01:16:02.359Z,3.90
2017-07-19T01:18:30.787Z,3.43
2017-07-19T01:20:59.623Z,3.60
2017-07-19T01:23:28.730Z,4.43
2017-07-19T01:25:57.579Z,3.90
2017-07-19T01:28:26.762Z,3.73
2017-07-19T01:30:55.596Z,3.60
2017-07-19T01:33:24.795Z,4.80
2017-07-19T01:35:53.630Z,3.50
2017-07-19T01:38:22.818Z,3.60
2017-07-19T01:40:51.650Z,3.30
2017-07-19T01:43:20.855Z,3.80
2017-07-19T01:45:49.618Z,3.73
2017-07-19T01:48:18.050Z,3.57
2017-07-19T01:50:46.874Z,3.27
2017-07-19T01:53:15.715Z,3.50
2017-07-19T01:55:43.444Z,3.13
2017-07-19T01:58:11.523Z,3.60
2017-07-19T02:00:39.935Z,4.20
2017-07-19T02:03:08.780Z,3.20
2017-07-19T02:05:37.639Z,4.10
2017-07-19T02:08:06.082Z,3.70
2017-07-19T02:10:34.915Z,3.73
2017-07-19T02:13:03.771Z,3.10
2017-07-19T02:15:32.196Z,3.43
2017-07-19T02:18:01.015Z,3.23
2017-07-19T02:20:29.846Z,2.93
2017-07-19T02:22:58.272Z,3.20
2017-07-19T02:25:27.092Z,3.60
2017-07-19T02:27:55.978Z,2.90
2017-07-19T02:30:25.183Z,2.90
2017-07-19T02:32:54.014Z,3.03
2017-07-19T02:35:23.223Z,3.43
2017-07-19T02:37:52.037Z,3.20
2017-07-19T02:40:20.471Z,2.90
2017-07-19T02:42:49.342Z,3.13
2017-07-19T02:45:18.179Z,2.93
2017-07-19T02:47:47.373Z,3.50
2017-07-19T02:50:16.186Z,2.87
2017-07-19T02:52:45.306Z,3.13
2017-07-19T02:55:13.919Z,3.27
2017-07-19T02:57:42.758Z,3.30
2017-07-19T03:00:11.171Z,3.10
2017-07-19T03:02:39.648Z,3.40
2017-07-19T03:05:09.532Z,3.27
2017-07-19T03:07:38.742Z,3.47
2017-07-19T03:10:07.172Z,2.90
2017-07-19T03:12:35.582Z,3.00
2017-07-19T03:15:04.710Z,3.23
2017-07-19T03:17:33.899Z,2.97
2017-07-19T03:20:02.727Z,3.80
2017-07-19T03:22:42.946Z,3.17
2017-07-19T03:25:11.762Z,2.83
2017-07-19T03:27:40.307Z,3.10
2017-07-19T03:30:08.751Z,3.23
2017-07-19T03:32:37.184Z,3.30
2017-07-19T03:35:06.028Z,3.10
2017-07-19T03:37:34.858Z,3.13
2017-07-19T03:40:04.046Z,3.03
2017-07-19T03:42:32.944Z,2.97
2017-07-19T03:45:02.071Z,2.70
2017-07-19T03:47:30.887Z,2.83
2017-07-19T03:50:00.079Z,3.13
2017-07-19T03:52:28.919Z,3.17
2017-07-19T03:54:58.103Z,3.33
2017-07-19T03:57:26.938Z,2.87
2017-07-19T03:59:55.360Z,3.40
2017-07-19T04:02:24.199Z,3.10
2017-07-19T04:04:53.024Z,3.27
2017-07-19T04:07:22.143Z,3.70
2017-07-19T04:09:52.199Z,3.00
2017-07-19T04:12:21.089Z,3.23
2017-07-19T04:14:49.616Z,3.23
2017-07-19T04:17:18.043Z,2.90
2017-07-19T04:19:46.500Z,2.70
2017-07-19T04:22:14.916Z,2.87
2017-07-19T04:24:43.344Z,3.40
2017-07-19T04:27:11.842Z,3.00
2017-07-19T04:29:40.255Z,3.30
2017-07-19T04:32:09.509Z,3.50
2017-07-19T04:34:38.619Z,3.20
2017-07-19T04:37:07.082Z,3.33
2017-07-19T04:39:35.516Z,3.53
2017-07-19T04:42:03.930Z,3.23
2017-07-19T04:44:33.482Z,2.93
2017-07-19T04:47:01.224Z,3.13
2017-07-19T04:49:29.652Z,3.50
2017-07-19T04:51:57.946Z,3.20
2017-07-19T04:54:26.397Z,4.07
2017-07-19T04:56:54.824Z,3.20
2017-07-19T04:59:23.099Z,3.07
2017-07-19T05:01:51.548Z,3.90
2017-07-19T05:04:19.960Z,3.13
2017-07-19T05:06:48.386Z,3.20
2017-07-19T05:09:16.826Z,3.57
2017-07-19T05:11:45.308Z,3.23
2017-07-19T05:14:13.719Z,3.30
2017-07-19T05:16:42.855Z,3.27
2017-07-19T05:19:11.306Z,3.70
2017-07-19T05:21:39.740Z,3.30
2017-07-19T05:24:08.303Z,4.33
2017-07-19T05:26:36.738Z,3.57
2017-07-19T05:29:05.153Z,3.77
2017-07-19T05:31:33.604Z,3.67
2017-07-19T05:34:02.086Z,3.20
2017-07-19T05:36:30.494Z,3.70
2017-07-19T05:38:58.923Z,3.80
2017-07-19T05:41:27.360Z,4.03
2017-07-19T05:43:55.795Z,3.90
2017-07-19T05:46:24.210Z,3.70
2017-07-19T05:48:52.646Z,4.00
2017-07-19T05:51:21.084Z,4.00
2017-07-19T05:53:49.516Z,3.80
2017-07-19T05:56:17.940Z,4.10
2017-07-19T05:58:47.054Z,4.07
2017-07-19T06:01:16.239Z,3.13
2017-07-19T06:03:44.666Z,3.90
2017-07-19T06:06:13.107Z,3.73
2017-07-19T06:08:41.531Z,3.83
2017-07-19T06:11:09.951Z,3.50
2017-07-19T06:13:38.401Z,3.67
2017-07-19T06:16:06.827Z,4.90
2017-07-19T06:18:35.263Z,4.20
2017-07-19T06:21:03.342Z,3.60
2017-07-19T06:23:31.788Z,4.00
2017-07-19T06:26:00.340Z,3.50
2017-07-19T06:28:29.443Z,3.80
2017-07-19T06:30:57.894Z,3.87
2017-07-19T06:33:26.327Z,3.90
2017-07-19T06:35:54.775Z,3.70
2017-07-19T06:38:23.203Z,3.70
2017-07-19T06:40:51.654Z,3.30
2017-07-19T06:43:20.076Z,3.40
2017-07-19T06:45:50.834Z,3.20
2017-07-19T06:48:19.255Z,3.50
2017-07-19T06:50:47.694Z,3.27
2017-07-19T06:53:16.127Z,2.80
2017-07-19T06:55:44.542Z,3.30
2017-07-19T06:58:13.000Z,2.83
2017-07-19T07:00:41.424Z,3.00
2017-07-19T07:03:09.951Z,3.27
2017-07-19T07:05:39.060Z,2.83
2017-07-19T07:08:07.698Z,3.10
2017-07-19T07:10:36.284Z,3.07
2017-07-19T07:13:04.700Z,3.10
2017-07-19T07:15:33.124Z,3.10
2017-07-19T07:18:01.632Z,2.87
2017-07-19T07:20:30.054Z,2.60
2017-07-19T07:22:59.174Z,3.20
2017-07-19T07:25:27.611Z,3.30
2017-07-19T07:27:56.042Z,3.70
2017-07-19T07:30:24.571Z,3.20
2017-07-19T07:32:52.986Z,3.53
2017-07-19T07:35:21.971Z,3.33
2017-07-19T07:37:51.039Z,3.47
2017-07-19T07:40:20.039Z,3.20
2017-07-19T07:42:49.869Z,4.47
2017-07-19T07:45:19.033Z,3.40
2017-07-19T07:47:48.069Z,3.20
2017-07-19T07:50:16.923Z,3.47
2017-07-19T07:52:47.248Z,3.20
2017-07-19T07:55:16.333Z,4.13
2017-07-19T07:57:44.798Z,3.50
2017-07-19T08:00:13.227Z,3.43
2017-07-19T08:02:41.802Z,3.90
2017-07-19T08:05:10.504Z,3.80
2017-07-19T08:07:38.959Z,3.80
2017-07-19T08:10:07.422Z,3.70
2017-07-19T08:12:35.864Z,3.90
2017-07-19T08:15:04.295Z,4.50
2017-07-19T08:17:32.714Z,4.80
2017-07-19T08:20:01.915Z,3.87
2017-07-19T08:22:31.118Z,3.97
2017-07-19T08:25:00.294Z,4.17
2017-07-19T08:27:28.713Z,4.80
2017-07-19T08:29:57.123Z,4.87
2017-07-19T08:32:25.556Z,4.97
2017-07-19T08:34:54.858Z,3.97
2017-07-19T08:37:23.294Z,4.20
2017-07-19T08:39:51.754Z,4.33
2017-07-19T08:42:20.295Z,3.97
2017-07-19T08:44:48.805Z,4.50
2017-07-19T08:47:17.226Z,4.20
2017-07-19T08:49:45.660Z,4.20
2017-07-19T08:52:14.234Z,4.40
2017-07-19T08:54:42.702Z,4.67
2017-07-19T08:57:11.129Z,4.90
2017-07-19T08:59:39.610Z,3.97
2017-07-19T09:02:08.187Z,3.93
2017-07-19T09:04:36.615Z,4.33
2017-07-19T09:07:05.067Z,4.57
2017-07-19T09:09:33.487Z,4.43
2017-07-19T09:12:01.924Z,3.87
2017-07-19T09:14:30.363Z,4.23
2017-07-19T09:16:58.807Z,4.50
2017-07-19T09:19:27.239Z,4.60
2017-07-19T09:21:55.692Z,4.03
2017-07-19T09:24:24.147Z,3.93
2017-07-19T09:26:52.605Z,4.63
2017-07-19T09:29:21.039Z,4.70
2017-07-19T09:31:49.855Z,4.80
2017-07-19T09:34:18.296Z,4.60
2017-07-19T09:36:46.761Z,4.50
2017-07-19T09:39:15.169Z,5.10
2017-07-19T09:41:43.613Z,4.87
2017-07-19T09:44:12.038Z,4.60
2017-07-19T09:46:40.519Z,4.83
2017-07-19T09:49:08.955Z,4.80
2017-07-19T09:51:37.386Z,4.47
2017-07-19T09:54:05.939Z,4.57
2017-07-19T09:56:35.042Z,4.63
2017-07-19T09:59:03.472Z,4.93
2017-07-19T10:01:31.980Z,5.20
2017-07-19T10:04:01.093Z,4.40
2017-07-19T10:06:29.528Z,4.97
2017-07-19T10:08:57.966Z,4.77
2017-07-19T10:11:26.428Z,5.00
2017-07-19T10:13:54.843Z,5.10
2017-07-19T10:16:23.295Z,4.83
2017-07-19T10:18:51.759Z,5.23
2017-07-19T10:21:20.254Z,4.80
2017-07-19T10:23:48.699Z,4.60
2017-07-19T10:26:17.799Z,4.90
2017-07-19T10:28:46.221Z,4.70
2017-07-19T10:31:14.656Z,4.83
2017-07-19T10:33:43.082Z,5.40
2017-07-19T10:36:11.539Z,5.50
2017-07-19T10:38:39.960Z,4.83
2017-07-19T10:41:08.401Z,4.87
2017-07-19T10:43:36.851Z,4.90
2017-07-19T10:46:05.279Z,4.70
2017-07-19T10:48:33.777Z,4.77
2017-07-19T10:51:02.194Z,4.70
2017-07-19T10:53:30.283Z,5.07
2017-07-19T10:55:59.504Z,4.47
2017-07-19T10:58:27.926Z,4.47
2017-07-19T11:00:56.350Z,5.50
2017-07-19T11:03:24.790Z,5.23
2017-07-19T11:05:53.227Z,5.10
2017-07-19T11:08:21.701Z,4.90
2017-07-19T11:10:50.126Z,5.37
2017-07-19T11:13:18.548Z,4.83
2017-07-19T11:15:46.992Z,5.03
2017-07-19T11:18:15.438Z,4.97
2017-07-19T11:20:43.858Z,5.00
2017-07-19T11:23:12.294Z,5.10
2017-07-19T11:25:41.406Z,5.23
2017-07-19T11:28:09.823Z,5.47
2017-07-19T11:30:38.283Z,5.10
2017-07-19T11:33:06.767Z,4.80
2017-07-19T11:35:35.186Z,4.80
2017-07-19T11:38:03.653Z,5.00
2017-07-19T11:40:32.074Z,4.80
2017-07-19T11:43:00.520Z,5.10
2017-07-19T11:45:28.959Z,5.43
2017-07-19T11:47:57.382Z,5.20
2017-07-19T11:50:26.590Z,4.97
2017-07-19T11:52:55.788Z,4.90
2017-07-19T11:55:24.351Z,4.40
2017-07-19T11:57:52.783Z,4.77
2017-07-19T12:00:21.225Z,4.43
2017-07-19T12:02:49.651Z,5.27
2017-07-19T12:05:18.117Z,4.90
2017-07-19T12:07:46.523Z,4.57
2017-07-19T12:10:14.956Z,5.43
2017-07-19T12:12:43.398Z,4.77
2017-07-19T12:15:11.827Z,5.43
2017-07-19T12:17:40.272Z,5.60
2017-07-19T12:20:08.677Z,5.47
2017-07-19T12:22:37.124Z,4.80
2017-07-19T12:25:05.554Z,5.43
2017-07-19T12:27:34.060Z,5.37
2017-07-19T12:30:02.498Z,4.80
2017-07-19T12:32:30.919Z,5.40
2017-07-19T12:34:59.347Z,5.27
2017-07-19T12:37:27.810Z,4.50
2017-07-19T12:39:56.338Z,4.97
2017-07-19T12:42:24.799Z,5.20
2017-07-19T12:44:53.244Z,5.00
2017-07-19T12:47:21.655Z,5.40
2017-07-19T12:49:50.097Z,5.07
2017-07-19T12:52:18.666Z,5.20
2017-07-19T12:54:47.096Z,5.00
2017-07-19T12:57:15.514Z,5.17
2017-07-19T12:59:43.967Z,5.37
2017-07-19T13:02:12.492Z,5.03
2017-07-19T13:04:40.920Z,5.00
2017-07-19T13:07:09.351Z,4.87
2017-07-19T13:09:37.804Z,5.43
2017-07-19T13:12:06.239Z,5.30
2017-07-19T13:14:34.719Z,4.80
2017-07-19T13:17:03.163Z,5.47
2017-07-19T13:19:31.616Z,5.03
2017-07-19T13:22:00.759Z,5.50
2017-07-19T13:24:29.184Z,5.43
2017-07-19T13:26:58.311Z,5.03
2017-07-19T13:29:26.780Z,5.10
2017-07-19T13:31:55.248Z,5.03
2017-07-19T13:34:23.680Z,5.30
2017-07-19T13:36:52.122Z,5.23
2017-07-19T13:39:20.627Z,5.13
2017-07-19T13:41:49.085Z,4.80
2017-07-19T13:44:17.511Z,5.13
2017-07-19T13:46:46.019Z,4.60
2017-07-19T13:49:14.468Z,4.90
2017-07-19T13:51:43.769Z,5.80
2017-07-19T13:54:12.987Z,4.93
2017-07-19T13:56:41.433Z,4.90
2017-07-19T13:59:10.711Z,5.00
2017-07-19T14:01:39.190Z,5.50
2017-07-19T14:04:07.637Z,5.50
2017-07-19T14:06:36.082Z,5.20
2017-07-19T14:09:03.820Z,4.87
2017-07-19T14:11:32.259Z,4.77
2017-07-19T14:14:00.735Z,4.90
2017-07-19T14:16:29.168Z,5.00
2017-07-19T14:18:57.595Z,4.80
2017-07-19T14:21:26.018Z,4.67
2017-07-19T14:23:54.466Z,4.70
2017-07-19T14:26:22.990Z,4.80
2017-07-19T14:28:51.443Z,4.50
2017-07-19T14:31:19.679Z,4.70
2017-07-19T14:33:48.116Z,4.57
2017-07-19T14:36:16.538Z,4.83
2017-07-19T14:38:44.979Z,4.83
2017-07-19T14:41:13.426Z,4.53
2017-07-19T14:43:41.862Z,4.60
2017-07-19T14:46:10.311Z,4.80
2017-07-19T14:48:38.861Z,5.20
2017-07-19T14:51:07.297Z,3.80
2017-07-19T14:53:35.727Z,4.40
2017-07-19T14:56:04.228Z,4.27
2017-07-19T14:58:32.790Z,4.60
2017-07-19T15:01:01.245Z,4.17
2017-07-19T15:03:29.700Z,4.60
2017-07-19T15:05:58.126Z,5.13
2017-07-19T15:08:26.703Z,4.70
2017-07-19T15:10:55.123Z,5.27
2017-07-19T15:13:23.561Z,4.47
2017-07-19T15:15:51.991Z,4.80
2017-07-19T15:18:20.439Z,4.70
2017-07-19T15:20:48.938Z,4.03
2017-07-19T15:23:17.363Z,4.77
2017-07-19T15:25:45.800Z,5.10
2017-07-19T15:28:14.313Z,4.80
2017-07-19T15:30:42.776Z,5.17
2017-07-19T15:33:11.196Z,5.30
2017-07-19T15:35:39.718Z,5.47
2017-07-19T15:38:08.168Z,5.87
2017-07-19T15:40:36.591Z,5.27
2017-07-19T15:43:05.159Z,6.20
2017-07-19T15:45:34.361Z,5.73
2017-07-19T15:48:03.475Z,5.57
2017-07-19T15:50:31.972Z,5.70
2017-07-19T15:53:00.382Z,6.27
2017-07-19T15:55:28.816Z,5.50
2017-07-19T15:57:57.267Z,6.17
2017-07-19T16:00:26.488Z,6.10
2017-07-19T16:02:54.985Z,7.37
2017-07-19T16:05:23.523Z,5.97
2017-07-19T16:07:51.970Z,6.10
2017-07-19T16:10:20.678Z,6.00
2017-07-19T16:12:49.102Z,6.33
2017-07-19T16:15:17.554Z,6.43
2017-07-19T16:17:45.989Z,6.33
2017-07-19T16:20:15.870Z,6.33
2017-07-19T16:22:45.126Z,5.60
2017-07-19T16:25:13.554Z,6.00
2017-07-19T16:27:42.763Z,6.60
2017-07-19T16:30:11.182Z,6.40
2017-07-19T16:32:40.316Z,5.10
2017-07-19T16:35:08.748Z,5.80
2017-07-19T16:37:37.410Z,6.07
2017-07-19T16:40:05.885Z,6.33
2017-07-19T16:42:34.998Z,5.73
2017-07-19T16:45:03.438Z,6.03
2017-07-19T16:47:31.861Z,6.00
2017-07-19T16:50:00.348Z,6.10
2017-07-19T16:52:28.781Z,6.10
2017-07-19T16:54:57.232Z,5.63
2017-07-19T16:57:25.666Z,6.27
2017-07-19T16:59:54.192Z,6.03
2017-07-19T17:02:22.615Z,5.53
2017-07-19T17:04:51.069Z,5.87
2017-07-19T17:07:19.487Z,6.83
2017-07-19T17:09:48.708Z,6.20
2017-07-19T17:12:17.246Z,5.40
2017-07-19T17:14:45.707Z,6.10
2017-07-19T17:17:14.137Z,5.50
2017-07-19T17:19:42.594Z,5.27
2017-07-19T17:22:10.835Z,5.73
2017-07-19T17:24:39.288Z,6.10
2017-07-19T17:27:07.730Z,6.20
2017-07-19T17:29:36.170Z,5.70
2017-07-19T17:32:04.617Z,6.30
2017-07-19T17:34:33.406Z,6.60
2017-07-19T17:37:01.851Z,6.63
2017-07-19T17:39:30.278Z,6.30
2017-07-19T17:41:58.736Z,6.17
2017-07-19T17:44:27.901Z,5.50
2017-07-19T17:46:56.343Z,6.43
2017-07-19T17:49:24.787Z,5.90
2017-07-19T17:51:53.243Z,5.90
2017-07-19T17:54:21.704Z,5.90
2017-07-19T17:56:50.905Z,6.00
2017-07-19T17:59:20.036Z,6.80
2017-07-19T18:01:48.446Z,5.70
2017-07-19T18:04:17.702Z,6.07
2017-07-19T18:06:46.152Z,5.30
2017-07-19T18:09:15.356Z,5.70
2017-07-19T18:11:43.828Z,5.63
2017-07-19T18:14:13.056Z,5.73
2017-07-19T18:16:41.503Z,5.63
2017-07-19T18:19:10.717Z,5.40
2017-07-19T18:21:39.155Z,5.47
2017-07-19T18:24:07.602Z,5.30
2017-07-19T18:26:36.070Z,5.97
2017-07-19T18:29:04.543Z,6.90
2017-07-19T18:31:32.970Z,5.70
2017-07-19T18:34:01.446Z,6.43
2017-07-19T18:36:29.897Z,5.90
2017-07-19T18:38:58.359Z,6.30
2017-07-19T18:41:27.562Z,5.93
2017-07-19T18:43:56.011Z,5.43
2017-07-19T18:46:24.467Z,6.93
2017-07-19T18:48:52.928Z,6.50
2017-07-19T18:51:21.387Z,6.20
2017-07-19T18:53:50.734Z,6.23
2017-07-19T18:56:19.248Z,7.40
2017-07-19T18:58:47.712Z,6.10
2017-07-19T19:01:16.156Z,6.47
2017-07-19T19:03:44.602Z,6.90
2017-07-19T19:06:13.873Z,6.33
2017-07-19T19:08:42.987Z,5.40
2017-07-19T19:11:11.431Z,6.70
2017-07-19T19:13:39.859Z,6.40
2017-07-19T19:16:08.982Z,6.10
2017-07-19T19:18:37.463Z,7.03
2017-07-19T19:21:05.915Z,6.90
2017-07-19T19:23:34.348Z,6.60
2017-07-19T19:26:02.776Z,6.43
2017-07-19T19:28:31.217Z,7.53
2017-07-19T19:31:00.415Z,7.70
2017-07-19T19:33:28.855Z,7.83
2017-07-19T19:35:58.072Z,7.30
2017-07-19T19:38:26.504Z,7.53
2017-07-19T19:40:54.999Z,8.20
2017-07-19T19:43:23.437Z,8.50
2017-07-19T19:45:51.878Z,8.17
2017-07-19T19:48:21.088Z,7.60
2017-07-19T19:50:50.300Z,7.07
2017-07-19T19:53:18.732Z,5.73
2017-07-19T19:55:47.226Z,5.30
2017-07-19T19:58:15.683Z,5.53
2017-07-19T20:00:44.151Z,4.73
2017-07-19T20:03:12.596Z,5.10
2017-07-19T20:05:41.805Z,4.60
2017-07-19T20:08:10.296Z,5.00
2017-07-19T20:10:40.198Z,5.03
2017-07-19T20:13:08.680Z,5.40
2017-07-19T20:15:37.143Z,6.00
2017-07-19T20:18:06.416Z,5.20
2017-07-19T20:20:34.944Z,5.40
2017-07-19T20:23:04.122Z,6.60
2017-07-19T20:25:32.569Z,6.03
2017-07-19T20:28:01.040Z,7.33
2017-07-19T20:30:30.236Z,7.90
2017-07-19T20:32:58.796Z,6.50
2017-07-19T20:35:27.258Z,7.23
2017-07-19T20:37:56.622Z,7.00
2017-07-19T20:40:25.166Z,7.80
2017-07-19T20:42:53.699Z,6.70
2017-07-19T20:45:22.180Z,7.80
2017-07-19T20:47:50.607Z,7.90
2017-07-19T20:50:19.035Z,6.43
2017-07-19T20:52:47.699Z,7.17
2017-07-19T20:55:16.259Z,8.20
2017-07-19T20:57:44.704Z,7.97
2017-07-19T21:00:12.849Z,8.30
2017-07-19T21:02:41.297Z,7.90
2017-07-19T21:05:10.599Z,7.87
2017-07-19T21:07:39.215Z,7.27
2017-07-19T21:10:07.672Z,7.43
2017-07-19T21:12:36.119Z,10.03
2017-07-19T21:15:04.622Z,8.40
2017-07-19T21:17:34.016Z,9.47
2017-07-19T21:20:03.183Z,10.30
2017-07-19T21:22:34.236Z,9.87
2017-07-19T21:25:02.670Z,11.70
2017-07-19T21:27:31.110Z,9.93
2017-07-19T21:30:00.316Z,9.50
2017-07-19T21:32:29.484Z,9.60
2017-07-19T21:34:57.972Z,9.50
2017-07-19T21:37:26.401Z,9.97
2017-07-19T21:39:54.852Z,9.83
2017-07-19T21:42:23.309Z,9.80
2017-07-19T21:44:51.743Z,9.70
2017-07-19T21:47:20.966Z,8.40
2017-07-19T21:49:49.399Z,7.90
2017-07-19T21:52:18.622Z,8.93
2017-07-19T21:54:47.058Z,9.63
2017-07-19T21:57:15.498Z,9.20
2017-07-19T21:59:43.955Z,9.47
2017-07-19T22:02:13.176Z,9.30
2017-07-19T22:04:41.606Z,9.30
2017-07-19T22:07:10.036Z,9.00
2017-07-19T22:09:38.476Z,9.60
2017-07-19T22:12:06.910Z,8.90
2017-07-19T22:14:35.391Z,8.70
2017-07-19T22:17:03.851Z,8.43
2017-07-19T22:19:32.987Z,8.10
2017-07-19T22:22:01.422Z,8.20
2017-07-19T22:24:30.635Z,8.47
2017-07-19T22:26:59.071Z,8.77
2017-07-19T22:29:27.506Z,9.47
2017-07-19T22:31:55.994Z,8.73
2017-07-19T22:34:24.446Z,9.27
2017-07-19T22:36:53.574Z,8.97
2017-07-19T22:39:22.023Z,10.00
2017-07-19T22:41:51.148Z,9.10
2017-07-19T22:44:20.264Z,8.80
2017-07-19T22:46:48.727Z,9.50
2017-07-19T22:49:17.151Z,10.00
2017-07-19T22:51:45.672Z,9.83
2017-07-19T22:54:14.884Z,10.77
2017-07-19T22:56:43.317Z,8.70
2017-07-19T22:59:11.751Z,10.30
2017-07-19T23:01:40.187Z,10.27
2017-07-19T23:04:08.617Z,9.70
2017-07-19T23:06:37.050Z,11.40
2017-07-19T23:09:04.994Z,10.70
2017-07-19T23:11:33.423Z,9.33
2017-07-19T23:14:02.631Z,9.97
2017-07-19T23:16:31.831Z,10.97
2017-07-19T23:19:01.042Z,9.97
2017-07-19T23:21:29.466Z,10.43
2017-07-19T23:23:58.032Z,10.83
2017-07-19T23:26:26.461Z,10.30
2017-07-19T23:28:55.722Z,10.90
2017-07-19T23:31:24.926Z,10.50
2017-07-19T23:33:53.380Z,10.30
2017-07-19T23:36:21.907Z,10.03
2017-07-19T23:38:50.334Z,9.70
2017-07-19T23:41:18.783Z,9.67
2017-07-19T23:43:47.230Z,10.50
2017-07-19T23:46:15.834Z,9.40
2017-07-19T23:48:44.262Z,9.50
2017-07-19T23:51:12.711Z,9.40
2017-07-19T23:53:41.873Z,8.60
2017-07-19T23:56:10.418Z,10.30
2017-07-19T23:58:38.867Z,11.10
